sensor_id;sensor_type;location;lat;lon;timestamp;temperature;humidity
5842;DHT22;2947;52.276;9.946;2022-09-02T00:01:02;15.20;1.00
5842;DHT22;2947;52.276;9.946;2022-09-02T00:03:35;15.10;1.00
5842;DHT22;2947;52.276;9.946;2022-09-02T00:06:02;15.10;1.00
5842;DHT22;2947;52.276;9.946;2022-09-02T00:08:29;15.40;21.20
5842;DHT22;2947;52.276;9.946;2022-09-02T00:10:59;15.00;61.00
5842;DHT22;2947;52.276;9.946;2022-09-02T00:13:28;14.90;99.90
5842;DHT22;2947;52.276;9.946;2022-09-02T00:15:55;14.90;99.90
5842;DHT22;2947;52.276;9.946;2022-09-02T00:18:21;14.80;1.00
5842;DHT22;2947;52.276;9.946;2022-09-02T00:20:48;14.70;1.00
5842;DHT22;2947;52.276;9.946;2022-09-02T00:23:15;14.60;99.90
5842;DHT22;2947;52.276;9.946;2022-09-02T00:25:41;14.60;99.90
5842;DHT22;2947;52.276;9.946;2022-09-02T00:28:09;14.60;99.90
5842;DHT22;2947;52.276;9.946;2022-09-02T00:30:36;15.60;99.90
5842;DHT22;2947;52.276;9.946;2022-09-02T00:33:02;14.70;96.10
5842;DHT22;2947;52.276;9.946;2022-09-02T00:35:28;14.60;99.90
5842;DHT22;2947;52.276;9.946;2022-09-02T00:37:55;14.90;1.00
5842;DHT22;2947;52.276;9.946;2022-09-02T00:40:21;15.60;99.90
5842;DHT22;2947;52.276;9.946;2022-09-02T00:42:49;14.50;1.00
5842;DHT22;2947;52.276;9.946;2022-09-02T00:45:16;14.50;1.00
5842;DHT22;2947;52.276;9.946;2022-09-02T00:47:43;15.10;1.00
5842;DHT22;2947;52.276;9.946;2022-09-02T00:50:12;14.50;1.00
5842;DHT22;2947;52.276;9.946;2022-09-02T00:52:46;14.40;99.90
5842;DHT22;2947;52.276;9.946;2022-09-02T00:55:18;14.30;1.00
5842;DHT22;2947;52.276;9.946;2022-09-02T00:57:53;14.30;1.00
5842;DHT22;2947;52.276;9.946;2022-09-02T01:00:25;14.30;1.00
5842;DHT22;2947;52.276;9.946;2022-09-02T01:02:57;14.20;99.90
5842;DHT22;2947;52.276;9.946;2022-09-02T01:05:28;14.10;1.00
5842;DHT22;2947;52.276;9.946;2022-09-02T01:07:56;14.10;99.90
5842;DHT22;2947;52.276;9.946;2022-09-02T01:10:28;14.10;99.90
5842;DHT22;2947;52.276;9.946;2022-09-02T01:13:03;14.00;99.90
5842;DHT22;2947;52.276;9.946;2022-09-02T01:15:37;14.00;38.60
5842;DHT22;2947;52.276;9.946;2022-09-02T01:18:09;13.90;47.00
5842;DHT22;2947;52.276;9.946;2022-09-02T01:20:38;13.90;1.00
5842;DHT22;2947;52.276;9.946;2022-09-02T01:23:03;13.90;99.90
5842;DHT22;2947;52.276;9.946;2022-09-02T01:25:31;14.00;99.90
5842;DHT22;2947;52.276;9.946;2022-09-02T01:28:01;13.90;1.00
5842;DHT22;2947;52.276;9.946;2022-09-02T01:30:30;13.90;4.40
5842;DHT22;2947;52.276;9.946;2022-09-02T01:32:57;13.90;99.90
5842;DHT22;2947;52.276;9.946;2022-09-02T01:35:23;14.00;99.90
5842;DHT22;2947;52.276;9.946;2022-09-02T01:37:52;13.90;1.00
5842;DHT22;2947;52.276;9.946;2022-09-02T01:40:19;13.90;99.90
5842;DHT22;2947;52.276;9.946;2022-09-02T01:42:46;14.10;1.00
5842;DHT22;2947;52.276;9.946;2022-09-02T01:45:12;13.90;1.00
5842;DHT22;2947;52.276;9.946;2022-09-02T01:47:39;13.90;26.70
5842;DHT22;2947;52.276;9.946;2022-09-02T01:50:06;13.90;99.90
5842;DHT22;2947;52.276;9.946;2022-09-02T01:52:34;13.90;1.00
5842;DHT22;2947;52.276;9.946;2022-09-02T01:55:00;13.90;99.90
5842;DHT22;2947;52.276;9.946;2022-09-02T01:57:26;13.80;1.00
5842;DHT22;2947;52.276;9.946;2022-09-02T01:59:54;13.90;1.00
5842;DHT22;2947;52.276;9.946;2022-09-02T02:02:20;13.80;99.90
5842;DHT22;2947;52.276;9.946;2022-09-02T02:04:47;13.80;1.00
5842;DHT22;2947;52.276;9.946;2022-09-02T02:07:15;13.80;1.00
5842;DHT22;2947;52.276;9.946;2022-09-02T02:09:44;13.80;1.00
5842;DHT22;2947;52.276;9.946;2022-09-02T02:12:10;13.80;99.90
5842;DHT22;2947;52.276;9.946;2022-09-02T02:14:36;13.70;1.00
5842;DHT22;2947;52.276;9.946;2022-09-02T02:17:02;13.70;66.10
5842;DHT22;2947;52.276;9.946;2022-09-02T02:19:28;13.70;17.60
5842;DHT22;2947;52.276;9.946;2022-09-02T02:21:54;13.60;1.00
5842;DHT22;2947;52.276;9.946;2022-09-02T02:24:21;13.60;99.90
5842;DHT22;2947;52.276;9.946;2022-09-02T02:26:47;13.60;1.00
5842;DHT22;2947;52.276;9.946;2022-09-02T02:29:13;13.60;99.90
5842;DHT22;2947;52.276;9.946;2022-09-02T02:31:39;13.50;1.00
5842;DHT22;2947;52.276;9.946;2022-09-02T02:34:05;13.50;1.00
5842;DHT22;2947;52.276;9.946;2022-09-02T02:36:31;13.60;1.00
5842;DHT22;2947;52.276;9.946;2022-09-02T02:38:57;13.50;1.00
5842;DHT22;2947;52.276;9.946;2022-09-02T02:41:26;13.50;1.00
5842;DHT22;2947;52.276;9.946;2022-09-02T02:43:54;13.40;1.00
5842;DHT22;2947;52.276;9.946;2022-09-02T02:46:20;14.30;1.00
5842;DHT22;2947;52.276;9.946;2022-09-02T02:48:45;13.40;34.00
5842;DHT22;2947;52.276;9.946;2022-09-02T02:51:12;13.40;11.30
5842;DHT22;2947;52.276;9.946;2022-09-02T02:53:37;13.20;84.60
5842;DHT22;2947;52.276;9.946;2022-09-02T02:56:04;13.20;99.90
5842;DHT22;2947;52.276;9.946;2022-09-02T02:58:30;13.30;99.90
5842;DHT22;2947;52.276;9.946;2022-09-02T03:00:57;13.20;99.90
5842;DHT22;2947;52.276;9.946;2022-09-02T03:03:23;13.20;99.90
5842;DHT22;2947;52.276;9.946;2022-09-02T03:05:49;13.20;99.90
5842;DHT22;2947;52.276;9.946;2022-09-02T03:08:16;13.10;99.90
5842;DHT22;2947;52.276;9.946;2022-09-02T03:10:48;13.10;99.90
5842;DHT22;2947;52.276;9.946;2022-09-02T03:13:18;13.10;99.90
5842;DHT22;2947;52.276;9.946;2022-09-02T03:15:46;13.10;99.90
5842;DHT22;2947;52.276;9.946;2022-09-02T03:18:13;13.90;99.90
5842;DHT22;2947;52.276;9.946;2022-09-02T03:20:39;13.10;99.90
5842;DHT22;2947;52.276;9.946;2022-09-02T03:23:06;13.10;99.90
5842;DHT22;2947;52.276;9.946;2022-09-02T03:25:34;13.10;99.90
5842;DHT22;2947;52.276;9.946;2022-09-02T03:28:01;13.10;99.90
5842;DHT22;2947;52.276;9.946;2022-09-02T03:30:30;13.00;99.90
5842;DHT22;2947;52.276;9.946;2022-09-02T03:32:58;13.10;99.90
5842;DHT22;2947;52.276;9.946;2022-09-02T03:35:25;13.00;99.90
5842;DHT22;2947;52.276;9.946;2022-09-02T03:37:51;13.00;99.90
5842;DHT22;2947;52.276;9.946;2022-09-02T03:40:20;13.00;99.90
5842;DHT22;2947;52.276;9.946;2022-09-02T03:42:48;13.00;99.90
5842;DHT22;2947;52.276;9.946;2022-09-02T03:45:15;13.00;99.90
5842;DHT22;2947;52.276;9.946;2022-09-02T03:47:43;13.20;99.90
5842;DHT22;2947;52.276;9.946;2022-09-02T03:50:32;13.00;99.90
5842;DHT22;2947;52.276;9.946;2022-09-02T03:53:01;13.00;99.90
5842;DHT22;2947;52.276;9.946;2022-09-02T03:55:27;12.90;99.90
5842;DHT22;2947;52.276;9.946;2022-09-02T03:57:53;12.80;99.90
5842;DHT22;2947;52.276;9.946;2022-09-02T04:00:21;12.80;99.90
5842;DHT22;2947;52.276;9.946;2022-09-02T04:02:54;12.80;99.90
5842;DHT22;2947;52.276;9.946;2022-09-02T04:05:21;12.80;1.00
5842;DHT22;2947;52.276;9.946;2022-09-02T04:07:48;12.80;1.00
5842;DHT22;2947;52.276;9.946;2022-09-02T04:10:15;12.80;1.00
5842;DHT22;2947;52.276;9.946;2022-09-02T04:12:41;12.70;1.00
5842;DHT22;2947;52.276;9.946;2022-09-02T04:15:09;13.30;1.00
5842;DHT22;2947;52.276;9.946;2022-09-02T04:17:36;12.70;1.00
5842;DHT22;2947;52.276;9.946;2022-09-02T04:20:05;12.70;1.00
5842;DHT22;2947;52.276;9.946;2022-09-02T04:22:32;12.60;1.00
5842;DHT22;2947;52.276;9.946;2022-09-02T04:24:59;12.60;1.00
5842;DHT22;2947;52.276;9.946;2022-09-02T04:27:25;12.60;1.00
5842;DHT22;2947;52.276;9.946;2022-09-02T04:29:51;12.60;1.00
5842;DHT22;2947;52.276;9.946;2022-09-02T04:32:16;12.60;1.00
5842;DHT22;2947;52.276;9.946;2022-09-02T04:34:42;12.60;1.00
5842;DHT22;2947;52.276;9.946;2022-09-02T04:37:08;12.60;1.00
5842;DHT22;2947;52.276;9.946;2022-09-02T04:39:34;12.50;1.00
5842;DHT22;2947;52.276;9.946;2022-09-02T04:41:59;12.50;1.00
5842;DHT22;2947;52.276;9.946;2022-09-02T04:44:25;12.60;1.00
5842;DHT22;2947;52.276;9.946;2022-09-02T04:46:51;12.50;1.00
5842;DHT22;2947;52.276;9.946;2022-09-02T04:49:17;12.90;1.00
5842;DHT22;2947;52.276;9.946;2022-09-02T04:51:43;12.50;1.00
5842;DHT22;2947;52.276;9.946;2022-09-02T04:54:09;12.50;1.00
5842;DHT22;2947;52.276;9.946;2022-09-02T04:56:35;12.40;1.00
5842;DHT22;2947;52.276;9.946;2022-09-02T04:59:02;12.50;1.00
5842;DHT22;2947;52.276;9.946;2022-09-02T05:01:31;12.50;1.00
5842;DHT22;2947;52.276;9.946;2022-09-02T05:03:59;12.50;1.00
5842;DHT22;2947;52.276;9.946;2022-09-02T05:06:28;12.30;1.00
5842;DHT22;2947;52.276;9.946;2022-09-02T05:08:56;12.60;1.00
5842;DHT22;2947;52.276;9.946;2022-09-02T05:11:25;12.60;1.00
5842;DHT22;2947;52.276;9.946;2022-09-02T05:13:56;12.60;1.00
5842;DHT22;2947;52.276;9.946;2022-09-02T05:16:30;12.70;1.00
5842;DHT22;2947;52.276;9.946;2022-09-02T05:19:01;12.70;1.00
5842;DHT22;2947;52.276;9.946;2022-09-02T05:21:28;12.80;1.00
5842;DHT22;2947;52.276;9.946;2022-09-02T05:23:56;12.80;1.00
5842;DHT22;2947;52.276;9.946;2022-09-02T05:26:23;12.90;1.00
5842;DHT22;2947;52.276;9.946;2022-09-02T05:28:50;13.00;1.00
5842;DHT22;2947;52.276;9.946;2022-09-02T05:31:17;13.60;1.00
5842;DHT22;2947;52.276;9.946;2022-09-02T05:33:44;13.10;99.90
5842;DHT22;2947;52.276;9.946;2022-09-02T05:36:13;13.20;99.90
5842;DHT22;2947;52.276;9.946;2022-09-02T05:38:41;13.20;99.90
5842;DHT22;2947;52.276;9.946;2022-09-02T05:41:09;13.30;99.90
5842;DHT22;2947;52.276;9.946;2022-09-02T05:43:39;13.30;99.90
5842;DHT22;2947;52.276;9.946;2022-09-02T05:46:09;13.40;99.90
5842;DHT22;2947;52.276;9.946;2022-09-02T05:48:36;13.40;99.90
5842;DHT22;2947;52.276;9.946;2022-09-02T05:51:23;13.50;99.90
5842;DHT22;2947;52.276;9.946;2022-09-02T05:53:54;13.50;99.90
5842;DHT22;2947;52.276;9.946;2022-09-02T05:56:38;13.50;99.90
5842;DHT22;2947;52.276;9.946;2022-09-02T05:59:06;13.70;99.90
5842;DHT22;2947;52.276;9.946;2022-09-02T06:01:33;13.70;99.90
5842;DHT22;2947;52.276;9.946;2022-09-02T06:04:00;14.10;99.90
5842;DHT22;2947;52.276;9.946;2022-09-02T06:06:28;13.90;99.90
5842;DHT22;2947;52.276;9.946;2022-09-02T06:08:54;13.90;99.90
5842;DHT22;2947;52.276;9.946;2022-09-02T06:11:21;13.90;58.50
5842;DHT22;2947;52.276;9.946;2022-09-02T06:13:46;14.10;62.20
5842;DHT22;2947;52.276;9.946;2022-09-02T06:16:15;14.10;1.00
5842;DHT22;2947;52.276;9.946;2022-09-02T06:18:43;14.20;99.90
5842;DHT22;2947;52.276;9.946;2022-09-02T06:21:10;14.30;17.20
5842;DHT22;2947;52.276;9.946;2022-09-02T06:23:37;14.40;1.00
5842;DHT22;2947;52.276;9.946;2022-09-02T06:26:04;13.60;1.00
5842;DHT22;2947;52.276;9.946;2022-09-02T06:28:31;14.50;99.90
5842;DHT22;2947;52.276;9.946;2022-09-02T06:30:57;14.70;1.00
5842;DHT22;2947;52.276;9.946;2022-09-02T06:33:23;14.80;1.00
5842;DHT22;2947;52.276;9.946;2022-09-02T06:35:49;14.90;99.90
5842;DHT22;2947;52.276;9.946;2022-09-02T06:38:15;14.50;21.50
5842;DHT22;2947;52.276;9.946;2022-09-02T06:40:52;15.20;99.90
5842;DHT22;2947;52.276;9.946;2022-09-02T06:43:19;15.70;99.90
5842;DHT22;2947;52.276;9.946;2022-09-02T06:45:45;15.40;99.90
5842;DHT22;2947;52.276;9.946;2022-09-02T06:48:11;15.70;99.90
5842;DHT22;2947;52.276;9.946;2022-09-02T06:50:43;15.60;99.90
5842;DHT22;2947;52.276;9.946;2022-09-02T06:53:09;15.70;1.00
5842;DHT22;2947;52.276;9.946;2022-09-02T06:55:38;15.80;99.90
5842;DHT22;2947;52.276;9.946;2022-09-02T06:58:05;15.90;1.00
5842;DHT22;2947;52.276;9.946;2022-09-02T07:00:30;16.00;1.00
5842;DHT22;2947;52.276;9.946;2022-09-02T07:02:57;16.10;46.30
5842;DHT22;2947;52.276;9.946;2022-09-02T07:05:42;16.30;99.90
5842;DHT22;2947;52.276;9.946;2022-09-02T07:08:07;16.40;99.90
5842;DHT22;2947;52.276;9.946;2022-09-02T07:10:37;16.50;1.00
5842;DHT22;2947;52.276;9.946;2022-09-02T07:13:04;16.60;99.90
5842;DHT22;2947;52.276;9.946;2022-09-02T07:15:30;16.80;1.00
5842;DHT22;2947;52.276;9.946;2022-09-02T07:17:56;17.10;1.00
5842;DHT22;2947;52.276;9.946;2022-09-02T07:20:22;16.90;99.90
5842;DHT22;2947;52.276;9.946;2022-09-02T07:22:48;16.90;99.90
5842;DHT22;2947;52.276;9.946;2022-09-02T07:25:15;17.00;99.90
5842;DHT22;2947;52.276;9.946;2022-09-02T07:27:41;17.00;99.90
5842;DHT22;2947;52.276;9.946;2022-09-02T07:30:09;17.10;99.90
5842;DHT22;2947;52.276;9.946;2022-09-02T07:32:36;17.30;99.90
5842;DHT22;2947;52.276;9.946;2022-09-02T07:35:04;17.30;71.50
5842;DHT22;2947;52.276;9.946;2022-09-02T07:37:31;17.40;46.60
5842;DHT22;2947;52.276;9.946;2022-09-02T07:39:59;17.60;1.00
5842;DHT22;2947;52.276;9.946;2022-09-02T07:42:29;17.60;1.00
5842;DHT22;2947;52.276;9.946;2022-09-02T07:44:55;17.70;1.00
5842;DHT22;2947;52.276;9.946;2022-09-02T07:47:21;17.90;1.00
5842;DHT22;2947;52.276;9.946;2022-09-02T07:49:51;18.10;1.00
5842;DHT22;2947;52.276;9.946;2022-09-02T07:52:17;18.40;99.90
5842;DHT22;2947;52.276;9.946;2022-09-02T07:54:43;18.40;99.90
5842;DHT22;2947;52.276;9.946;2022-09-02T07:57:09;18.70;99.90
5842;DHT22;2947;52.276;9.946;2022-09-02T07:59:35;18.70;1.00
5842;DHT22;2947;52.276;9.946;2022-09-02T08:02:01;18.80;1.00
5842;DHT22;2947;52.276;9.946;2022-09-02T08:04:27;18.90;1.00
5842;DHT22;2947;52.276;9.946;2022-09-02T08:06:53;19.10;1.00
5842;DHT22;2947;52.276;9.946;2022-09-02T08:09:20;19.10;1.00
5842;DHT22;2947;52.276;9.946;2022-09-02T08:11:48;19.30;1.00
5842;DHT22;2947;52.276;9.946;2022-09-02T08:14:20;19.40;1.00
5842;DHT22;2947;52.276;9.946;2022-09-02T08:16:49;19.50;1.00
5842;DHT22;2947;52.276;9.946;2022-09-02T08:19:15;19.60;1.00
5842;DHT22;2947;52.276;9.946;2022-09-02T08:21:41;19.80;99.90
5842;DHT22;2947;52.276;9.946;2022-09-02T08:24:07;19.90;99.90
5842;DHT22;2947;52.276;9.946;2022-09-02T08:26:32;19.90;99.90
5842;DHT22;2947;52.276;9.946;2022-09-02T08:29:02;20.00;99.90
5842;DHT22;2947;52.276;9.946;2022-09-02T08:31:29;20.10;99.90
5842;DHT22;2947;52.276;9.946;2022-09-02T08:33:57;20.20;99.90
5842;DHT22;2947;52.276;9.946;2022-09-02T08:36:24;20.40;99.90
5842;DHT22;2947;52.276;9.946;2022-09-02T08:38:50;20.40;99.90
5842;DHT22;2947;52.276;9.946;2022-09-02T08:44:22;20.60;99.90
5842;DHT22;2947;52.276;9.946;2022-09-02T08:46:55;20.80;99.90
5842;DHT22;2947;52.276;9.946;2022-09-02T08:49:34;20.80;99.90
5842;DHT22;2947;52.276;9.946;2022-09-02T08:52:04;21.90;99.90
5842;DHT22;2947;52.276;9.946;2022-09-02T08:57:11;21.00;99.90
5842;DHT22;2947;52.276;9.946;2022-09-02T08:59:37;21.20;99.90
5842;DHT22;2947;52.276;9.946;2022-09-02T09:05:21;21.40;99.90
5842;DHT22;2947;52.276;9.946;2022-09-02T09:13:54;21.60;99.90
5842;DHT22;2947;52.276;9.946;2022-09-02T09:19:13;21.80;99.90
5842;DHT22;2947;52.276;9.946;2022-09-02T09:21:41;21.90;99.90
5842;DHT22;2947;52.276;9.946;2022-09-02T09:26:52;21.80;99.90
5842;DHT22;2947;52.276;9.946;2022-09-02T09:29:19;22.00;99.90
5842;DHT22;2947;52.276;9.946;2022-09-02T09:31:56;22.00;99.90
5842;DHT22;2947;52.276;9.946;2022-09-02T09:34:23;22.10;99.90
5842;DHT22;2947;52.276;9.946;2022-09-02T09:36:53;22.30;99.90
5842;DHT22;2947;52.276;9.946;2022-09-02T09:41:58;22.30;99.90
5842;DHT22;2947;52.276;9.946;2022-09-02T09:44:39;22.50;99.90
5842;DHT22;2947;52.276;9.946;2022-09-02T09:47:21;22.60;99.90
5842;DHT22;2947;52.276;9.946;2022-09-02T09:49:51;22.70;99.90
5842;DHT22;2947;52.276;9.946;2022-09-02T09:52:23;22.70;99.90
5842;DHT22;2947;52.276;9.946;2022-09-02T09:55:15;22.90;99.90
5842;DHT22;2947;52.276;9.946;2022-09-02T09:57:45;22.90;99.90
5842;DHT22;2947;52.276;9.946;2022-09-02T10:00:24;23.10;99.90
5842;DHT22;2947;52.276;9.946;2022-09-02T10:02:54;23.10;99.90
5842;DHT22;2947;52.276;9.946;2022-09-02T10:05:29;23.10;99.90
5842;DHT22;2947;52.276;9.946;2022-09-02T10:08:03;23.20;99.90
5842;DHT22;2947;52.276;9.946;2022-09-02T10:10:31;23.30;99.90
5842;DHT22;2947;52.276;9.946;2022-09-02T10:13:18;23.40;99.90
5842;DHT22;2947;52.276;9.946;2022-09-02T10:21:52;23.70;99.90
5842;DHT22;2947;52.276;9.946;2022-09-02T10:27:35;23.80;99.90
5842;DHT22;2947;52.276;9.946;2022-09-02T10:30:15;23.90;99.90
5842;DHT22;2947;52.276;9.946;2022-09-02T10:35:43;24.00;99.90
5842;DHT22;2947;52.276;9.946;2022-09-02T10:38:23;24.10;99.90
5842;DHT22;2947;52.276;9.946;2022-09-02T10:47:02;24.20;99.90
5842;DHT22;2947;52.276;9.946;2022-09-02T11:01:19;24.40;99.90
5842;DHT22;2947;52.276;9.946;2022-09-02T11:03:53;24.40;99.90
5842;DHT22;2947;52.276;9.946;2022-09-02T11:06:27;24.40;99.90
5842;DHT22;2947;52.276;9.946;2022-09-02T11:09:02;24.40;99.90
5842;DHT22;2947;52.276;9.946;2022-09-02T11:11:45;24.60;99.90
5842;DHT22;2947;52.276;9.946;2022-09-02T11:14:23;24.60;99.90
5842;DHT22;2947;52.276;9.946;2022-09-02T11:17:18;25.40;99.90
5842;DHT22;2947;52.276;9.946;2022-09-02T11:20:15;24.70;99.90
5842;DHT22;2947;52.276;9.946;2022-09-02T11:22:58;24.80;99.90
5842;DHT22;2947;52.276;9.946;2022-09-02T11:28:38;25.00;99.90
5842;DHT22;2947;52.276;9.946;2022-09-02T11:31:21;25.00;99.90
5842;DHT22;2947;52.276;9.946;2022-09-02T11:34:01;25.10;99.90
5842;DHT22;2947;52.276;9.946;2022-09-02T11:36:30;25.20;99.90
5842;DHT22;2947;52.276;9.946;2022-09-02T11:39:09;25.30;99.90
5842;DHT22;2947;52.276;9.946;2022-09-02T11:45:07;25.60;99.90
5842;DHT22;2947;52.276;9.946;2022-09-02T11:47:55;25.70;99.90
5842;DHT22;2947;52.276;9.946;2022-09-02T11:53:43;26.00;99.90
5842;DHT22;2947;52.276;9.946;2022-09-02T11:56:17;25.90;99.90
5842;DHT22;2947;52.276;9.946;2022-09-02T11:58:49;26.00;99.90
5842;DHT22;2947;52.276;9.946;2022-09-02T12:04:25;25.90;99.90
5842;DHT22;2947;52.276;9.946;2022-09-02T12:09:52;25.90;99.90
5842;DHT22;2947;52.276;9.946;2022-09-02T12:15:16;26.40;99.90
5842;DHT22;2947;52.276;9.946;2022-09-02T12:23:10;26.50;99.90
5842;DHT22;2947;52.276;9.946;2022-09-02T12:26:13;26.60;99.90
5842;DHT22;2947;52.276;9.946;2022-09-02T12:28:41;26.60;99.90
5842;DHT22;2947;52.276;9.946;2022-09-02T12:31:14;26.60;99.90
5842;DHT22;2947;52.276;9.946;2022-09-02T12:34:01;26.60;99.90
5842;DHT22;2947;52.276;9.946;2022-09-02T12:44:52;27.00;99.90
5842;DHT22;2947;52.276;9.946;2022-09-02T12:48:10;26.90;99.90
5842;DHT22;2947;52.276;9.946;2022-09-02T12:50:56;26.70;99.90
5842;DHT22;2947;52.276;9.946;2022-09-02T12:53:39;26.60;99.90
5842;DHT22;2947;52.276;9.946;2022-09-02T12:56:23;26.60;99.90
5842;DHT22;2947;52.276;9.946;2022-09-02T12:58:56;26.60;99.90
5842;DHT22;2947;52.276;9.946;2022-09-02T13:16:38;26.10;99.90
5842;DHT22;2947;52.276;9.946;2022-09-02T13:22:23;26.00;99.90
5842;DHT22;2947;52.276;9.946;2022-09-02T13:25:10;25.90;99.90
5842;DHT22;2947;52.276;9.946;2022-09-02T13:30:57;26.00;99.90
5842;DHT22;2947;52.276;9.946;2022-09-02T13:33:29;25.90;99.90
5842;DHT22;2947;52.276;9.946;2022-09-02T13:35:56;25.70;99.90
5842;DHT22;2947;52.276;9.946;2022-09-02T13:38:28;25.80;99.90
5842;DHT22;2947;52.276;9.946;2022-09-02T13:40:54;25.70;99.90
5842;DHT22;2947;52.276;9.946;2022-09-02T13:43:22;25.60;99.20
5842;DHT22;2947;52.276;9.946;2022-09-02T13:45:50;25.60;98.60
5842;DHT22;2947;52.276;9.946;2022-09-02T13:48:23;25.30;95.40
5842;DHT22;2947;52.276;9.946;2022-09-02T13:50:55;25.20;94.40
5842;DHT22;2947;52.276;9.946;2022-09-02T13:53:41;25.10;92.90
5842;DHT22;2947;52.276;9.946;2022-09-02T13:56:10;25.10;93.20
5842;DHT22;2947;52.276;9.946;2022-09-02T13:58:41;25.00;92.00
5842;DHT22;2947;52.276;9.946;2022-09-02T14:01:18;25.00;91.70
5842;DHT22;2947;52.276;9.946;2022-09-02T14:04:03;24.90;91.20
5842;DHT22;2947;52.276;9.946;2022-09-02T14:06:40;24.90;94.90
5842;DHT22;2947;52.276;9.946;2022-09-02T14:09:16;24.80;90.30
5842;DHT22;2947;52.276;9.946;2022-09-02T14:11:50;24.70;90.00
5842;DHT22;2947;52.276;9.946;2022-09-02T14:14:21;24.70;89.00
5842;DHT22;2947;52.276;9.946;2022-09-02T14:16:48;24.70;87.80
5842;DHT22;2947;52.276;9.946;2022-09-02T14:21:58;24.70;87.50
5842;DHT22;2947;52.276;9.946;2022-09-02T14:24:29;24.50;86.50
5842;DHT22;2947;52.276;9.946;2022-09-02T14:27:02;26.30;85.30
5842;DHT22;2947;52.276;9.946;2022-09-02T14:29:29;24.40;81.20
5842;DHT22;2947;52.276;9.946;2022-09-02T14:34:42;24.30;78.70
5842;DHT22;2947;52.276;9.946;2022-09-02T14:40:08;24.00;74.30
5842;DHT22;2947;52.276;9.946;2022-09-02T14:42:49;24.00;83.10
5842;DHT22;2947;52.276;9.946;2022-09-02T14:45:30;24.00;74.20
5842;DHT22;2947;52.276;9.946;2022-09-02T14:48:00;24.00;73.20
5842;DHT22;2947;52.276;9.946;2022-09-02T14:50:33;23.90;72.50
5842;DHT22;2947;52.276;9.946;2022-09-02T14:53:05;23.90;71.60
5842;DHT22;2947;52.276;9.946;2022-09-02T14:55:54;23.80;71.00
5842;DHT22;2947;52.276;9.946;2022-09-02T14:58:23;22.00;68.70
5842;DHT22;2947;52.276;9.946;2022-09-02T15:00:52;23.80;68.90
5842;DHT22;2947;52.276;9.946;2022-09-02T15:03:22;23.70;68.80
5842;DHT22;2947;52.276;9.946;2022-09-02T15:05:49;23.70;66.60
5842;DHT22;2947;52.276;9.946;2022-09-02T15:08:16;23.70;67.80
5842;DHT22;2947;52.276;9.946;2022-09-02T15:10:43;23.70;68.50
5842;DHT22;2947;52.276;9.946;2022-09-02T15:13:12;23.70;67.30
5842;DHT22;2947;52.276;9.946;2022-09-02T15:15:39;23.70;66.00
5842;DHT22;2947;52.276;9.946;2022-09-02T15:18:05;23.60;65.70
5842;DHT22;2947;52.276;9.946;2022-09-02T15:20:33;23.70;65.60
5842;DHT22;2947;52.276;9.946;2022-09-02T15:22:58;23.70;65.00
5842;DHT22;2947;52.276;9.946;2022-09-02T15:25:24;24.70;67.30
5842;DHT22;2947;52.276;9.946;2022-09-02T15:27:50;23.60;63.10
5842;DHT22;2947;52.276;9.946;2022-09-02T15:30:16;23.60;86.30
5842;DHT22;2947;52.276;9.946;2022-09-02T15:32:42;23.60;63.90
5842;DHT22;2947;52.276;9.946;2022-09-02T15:35:09;23.60;64.70
5842;DHT22;2947;52.276;9.946;2022-09-02T15:37:35;23.60;64.20
5842;DHT22;2947;52.276;9.946;2022-09-02T15:40:04;23.60;64.20
5842;DHT22;2947;52.276;9.946;2022-09-02T15:42:35;23.60;63.50
5842;DHT22;2947;52.276;9.946;2022-09-02T15:45:04;23.60;62.70
5842;DHT22;2947;52.276;9.946;2022-09-02T15:47:36;23.50;61.50
5842;DHT22;2947;52.276;9.946;2022-09-02T15:50:07;23.50;63.10
5842;DHT22;2947;52.276;9.946;2022-09-02T15:52:33;23.50;52.80
5842;DHT22;2947;52.276;9.946;2022-09-02T15:55:00;23.50;56.20
5842;DHT22;2947;52.276;9.946;2022-09-02T15:57:25;23.50;60.40
5842;DHT22;2947;52.276;9.946;2022-09-02T15:59:52;23.50;63.20
5842;DHT22;2947;52.276;9.946;2022-09-02T16:02:18;23.40;64.40
5842;DHT22;2947;52.276;9.946;2022-09-02T16:04:44;23.40;60.60
5842;DHT22;2947;52.276;9.946;2022-09-02T16:07:09;23.40;58.50
5842;DHT22;2947;52.276;9.946;2022-09-02T16:09:35;23.30;59.10
5842;DHT22;2947;52.276;9.946;2022-09-02T16:12:01;22.80;55.90
5842;DHT22;2947;52.276;9.946;2022-09-02T16:14:27;23.30;57.50
5842;DHT22;2947;52.276;9.946;2022-09-02T16:16:53;23.20;56.40
5842;DHT22;2947;52.276;9.946;2022-09-02T16:19:21;23.20;56.20
5842;DHT22;2947;52.276;9.946;2022-09-02T16:21:49;22.20;51.90
5842;DHT22;2947;52.276;9.946;2022-09-02T16:24:16;23.10;54.80
5842;DHT22;2947;52.276;9.946;2022-09-02T16:26:44;23.10;54.30
5842;DHT22;2947;52.276;9.946;2022-09-02T16:29:12;23.10;56.70
5842;DHT22;2947;52.276;9.946;2022-09-02T16:31:40;23.10;53.50
5842;DHT22;2947;52.276;9.946;2022-09-02T16:34:09;23.00;52.50
5842;DHT22;2947;52.276;9.946;2022-09-02T16:36:39;23.00;53.60
5842;DHT22;2947;52.276;9.946;2022-09-02T16:39:07;22.90;51.40
5842;DHT22;2947;52.276;9.946;2022-09-02T16:41:35;24.90;54.10
5842;DHT22;2947;52.276;9.946;2022-09-02T16:44:09;22.90;50.30
5842;DHT22;2947;52.276;9.946;2022-09-02T16:46:37;22.80;49.70
5842;DHT22;2947;52.276;9.946;2022-09-02T16:49:07;22.80;50.40
5842;DHT22;2947;52.276;9.946;2022-09-02T16:51:33;22.80;48.40
5842;DHT22;2947;52.276;9.946;2022-09-02T16:54:02;22.70;47.90
5842;DHT22;2947;52.276;9.946;2022-09-02T16:56:29;22.70;46.50
5842;DHT22;2947;52.276;9.946;2022-09-02T16:58:58;22.70;47.10
5842;DHT22;2947;52.276;9.946;2022-09-02T17:01:26;22.60;46.90
5842;DHT22;2947;52.276;9.946;2022-09-02T17:03:52;22.60;46.20
5842;DHT22;2947;52.276;9.946;2022-09-02T17:06:18;22.60;46.90
5842;DHT22;2947;52.276;9.946;2022-09-02T17:08:44;22.60;46.60
5842;DHT22;2947;52.276;9.946;2022-09-02T17:11:21;22.50;46.40
5842;DHT22;2947;52.276;9.946;2022-09-02T17:13:57;22.40;44.10
5842;DHT22;2947;52.276;9.946;2022-09-02T17:16:32;22.40;43.20
5842;DHT22;2947;52.276;9.946;2022-09-02T17:19:00;22.40;43.40
5842;DHT22;2947;52.276;9.946;2022-09-02T17:21:32;22.40;41.00
5842;DHT22;2947;52.276;9.946;2022-09-02T17:23:59;22.30;42.90
5842;DHT22;2947;52.276;9.946;2022-09-02T17:26:27;22.30;42.60
5842;DHT22;2947;52.276;9.946;2022-09-02T17:28:54;22.20;40.80
5842;DHT22;2947;52.276;9.946;2022-09-02T17:31:25;22.20;40.30
5842;DHT22;2947;52.276;9.946;2022-09-02T17:33:56;22.10;55.60
5842;DHT22;2947;52.276;9.946;2022-09-02T17:36:25;22.10;39.70
5842;DHT22;2947;52.276;9.946;2022-09-02T17:38:57;22.10;38.30
5842;DHT22;2947;52.276;9.946;2022-09-02T17:41:25;22.00;37.30
5842;DHT22;2947;52.276;9.946;2022-09-02T17:44:10;22.00;36.90
5842;DHT22;2947;52.276;9.946;2022-09-02T17:46:38;21.90;37.30
5842;DHT22;2947;52.276;9.946;2022-09-02T17:49:04;21.90;35.50
5842;DHT22;2947;52.276;9.946;2022-09-02T17:51:31;22.50;35.00
5842;DHT22;2947;52.276;9.946;2022-09-02T17:53:57;23.70;38.40
5842;DHT22;2947;52.276;9.946;2022-09-02T18:05:21;21.50;30.60
5842;DHT22;2947;52.276;9.946;2022-09-02T18:07:55;21.40;29.70
5842;DHT22;2947;52.276;9.946;2022-09-02T18:10:33;21.40;30.00
5842;DHT22;2947;52.276;9.946;2022-09-02T18:19:19;21.10;27.20
5842;DHT22;2947;52.276;9.946;2022-09-02T18:25:00;21.00;26.10
5842;DHT22;2947;52.276;9.946;2022-09-02T18:27:48;20.90;40.40
5842;DHT22;2947;52.276;9.946;2022-09-02T18:33:41;20.80;24.50
5842;DHT22;2947;52.276;9.946;2022-09-02T18:40:03;20.70;23.40
5842;DHT22;2947;52.276;9.946;2022-09-02T18:42:52;22.30;25.40